Grand Canyon National Park Airport Grand Canyon US
ICAO: KGCN
IATA: GCN
Category: Medium
Scheduled Services: Yes

Elevation: 6609 ft
TransAlt. 18000 ft.

Airport Communications:
ASOS:124.3
ATIS:124.3
LOS ANGELES CNTR:124.85
CTAF:119
GND:121.9
PRESCOTT RDO:122.3
CANYON TWR:119
UNICOM:122.95

KGCN Zoom In..

Runways:

(A) RW 03 length 8999 ft width 150 ft
ILS 108.90 / hdg 27

(B) RW 21 length 8999 ft width 150 ft
---- / hdg 207

Location; KGCN
Day. 25 / Time. 11.54 Zulu
* Altimeter: 30.25
* Temperature: 12° c. 53.6°f.
* Wind from: 070° Speed 12 kn.
Dewpoint: -08° c.
Visibility: 10 Statute Miles.
Clouds: Clear (automated report).

KGCN 251154Z 07012KT 10SM CLR 12/M08 A3025 RMK AO2 SLP151 T01171078 10122 20006 53001


Wind From 070°
Speed 12 kn.

  YouTube Music Video
 
jpsmedia.com for Web Design  worldairports.se 2018   terms of use